Date,TemperatureHighF,TemperatureAvgF,TemperatureLowF,DewpointHighF,DewpointAvgF,DewpointLowF,HumidityHigh,HumidityAvg,HumidityLow,PressureMaxIn,PressureMinIn,WindSpeedMaxMPH,WindSpeedAvgMPH,GustSpeedMaxMPH,PrecipitationSumIn
2013-2-1,68,50,35,30,26,21,62,41,19,30.15,30.05,8,3,8,0.00
2013-2-2,70,54,39,29,24,20,49,33,16,30.18,30.07,12,3,12,0.00
2013-2-3,66,53,47,42,30,21,64,43,26,30.09,29.94,20,3,20,0.00
2013-2-4,68,53,39,41,36,32,75,55,33,29.98,29.90,11,2,11,0.00
2013-2-5,70,53,41,42,35,30,75,54,25,29.99,29.88,15,4,15,0.00
2013-2-6,66,51,40,40,33,28,75,54,25,29.99,29.86,16,5,16,0.00
2013-2-7,68,51,37,38,31,24,75,49,23,30.04,29.93,12,3,12,0.00
2013-2-8,64,53,40,26,18,3,53,30,10,29.93,29.73,34,14,34,0.00
2013-2-9,49,42,31,32,22,16,74,46,32,29.92,29.68,36,12,36,0.00
2013-2-10,57,39,26,26,14,0,69,41,10,29.93,29.82,18,4,19,0.00
2013-2-11,51,39,29,32,19,9,90,49,31,29.98,29.82,26,6,26,0.00
2013-2-12,49,34,23,28,22,15,90,62,30,30.07,29.97,11,4,11,0.01
2013-2-13,61,41,26,24,18,11,67,44,17,30.05,29.95,9,3,9,0.00
2013-2-14,62,46,29,25,19,15,61,37,18,30.05,29.94,12,4,13,0.00
2013-2-15,68,50,39,28,17,2,52,31,7,30.17,30.02,16,4,16,0.00
2013-2-16,73,51,37,20,13,8,37,23,10,30.19,29.97,17,6,17,0.00
2013-2-17,70,52,36,16,9,1,36,19,7,29.98,29.82,25,5,25,0.00
2013-2-18,69,52,35,18,11,5,37,21,8,29.99,29.89,14,4,14,0.00
2013-2-19,61,52,42,38,23,10,58,34,21,29.90,29.63,41,15,41,0.00
2013-2-20,48,39,32,34,26,10,84,61,22,29.80,29.58,38,15,42,0.17
2013-2-21,57,37,24,32,25,18,79,64,34,29.89,29.79,12,3,14,0.04
2013-2-22,56,42,30,34,29,23,80,61,29,30.03,29.84,16,4,16,0.00
2013-2-23,66,46,28,33,24,12,78,49,15,30.00,29.78,19,4,19,0.00
2013-2-24,50,42,32,21,11,-6,44,29,11,29.94,29.71,41,11,41,0.00
2013-2-25,64,41,27,15,10,4,49,31,12,30.03,29.92,14,4,14,0.00
2013-2-26,64,43,27,21,11,3,58,32,8,29.97,29.83,22,5,22,0.00
2013-2-27,64,46,31,14,10,3,45,26,10,30.08,29.97,10,4,10,0.00
2013-2-28,71,47,32,12,6,-1,37,20,5,30.20,30.04,15,5,15,0.00